sensor_id;sensor_type;location;lat;lon;timestamp;temperature;humidity
8043;DHT22;4064;48.132;11.366;2023-02-21T00:01:51;5.00;81.70
8043;DHT22;4064;48.132;11.366;2023-02-21T00:04:35;5.00;81.40
8043;DHT22;4064;48.132;11.366;2023-02-21T00:07:20;5.00;81.40
8043;DHT22;4064;48.132;11.366;2023-02-21T00:10:05;5.10;81.40
8043;DHT22;4064;48.132;11.366;2023-02-21T00:12:49;5.00;81.00
8043;DHT22;4064;48.132;11.366;2023-02-21T00:15:33;5.00;81.40
8043;DHT22;4064;48.132;11.366;2023-02-21T00:18:18;5.00;81.40
8043;DHT22;4064;48.132;11.366;2023-02-21T00:21:03;5.10;81.60
8043;DHT22;4064;48.132;11.366;2023-02-21T00:23:47;5.00;81.20
8043;DHT22;4064;48.132;11.366;2023-02-21T00:26:31;5.00;81.60
8043;DHT22;4064;48.132;11.366;2023-02-21T00:29:15;5.00;81.60
8043;DHT22;4064;48.132;11.366;2023-02-21T00:31:59;5.00;81.80
8043;DHT22;4064;48.132;11.366;2023-02-21T00:34:43;4.90;82.10
8043;DHT22;4064;48.132;11.366;2023-02-21T00:37:28;4.90;82.50
8043;DHT22;4064;48.132;11.366;2023-02-21T00:40:13;4.90;82.60
8043;DHT22;4064;48.132;11.366;2023-02-21T00:42:58;4.80;82.70
8043;DHT22;4064;48.132;11.366;2023-02-21T00:45:42;4.80;83.00
8043;DHT22;4064;48.132;11.366;2023-02-21T00:48:26;4.80;83.30
8043;DHT22;4064;48.132;11.366;2023-02-21T00:51:11;4.80;83.50
8043;DHT22;4064;48.132;11.366;2023-02-21T00:53:55;4.70;83.70
8043;DHT22;4064;48.132;11.366;2023-02-21T00:56:39;4.60;84.20
8043;DHT22;4064;48.132;11.366;2023-02-21T00:59:23;4.70;85.30
8043;DHT22;4064;48.132;11.366;2023-02-21T01:02:07;4.60;85.30
8043;DHT22;4064;48.132;11.366;2023-02-21T01:04:52;4.60;85.80
8043;DHT22;4064;48.132;11.366;2023-02-21T01:07:36;4.50;85.40
8043;DHT22;4064;48.132;11.366;2023-02-21T01:10:21;4.50;86.30
8043;DHT22;4064;48.132;11.366;2023-02-21T01:13:05;4.40;86.90
8043;DHT22;4064;48.132;11.366;2023-02-21T01:15:49;4.30;87.40
8043;DHT22;4064;48.132;11.366;2023-02-21T01:18:34;4.30;87.70
8043;DHT22;4064;48.132;11.366;2023-02-21T01:21:19;4.30;88.40
8043;DHT22;4064;48.132;11.366;2023-02-21T01:24:04;4.20;88.30
8043;DHT22;4064;48.132;11.366;2023-02-21T01:26:49;4.20;88.60
8043;DHT22;4064;48.132;11.366;2023-02-21T01:29:33;4.20;89.00
8043;DHT22;4064;48.132;11.366;2023-02-21T01:32:18;4.10;89.70
8043;DHT22;4064;48.132;11.366;2023-02-21T01:35:02;4.00;90.10
8043;DHT22;4064;48.132;11.366;2023-02-21T01:37:46;4.00;90.40
8043;DHT22;4064;48.132;11.366;2023-02-21T01:40:30;4.00;90.40
8043;DHT22;4064;48.132;11.366;2023-02-21T01:43:16;3.90;90.90
8043;DHT22;4064;48.132;11.366;2023-02-21T01:46:01;3.90;91.20
8043;DHT22;4064;48.132;11.366;2023-02-21T01:48:46;3.80;91.10
8043;DHT22;4064;48.132;11.366;2023-02-21T01:51:34;3.90;91.70
8043;DHT22;4064;48.132;11.366;2023-02-21T01:54:20;3.80;91.70
8043;DHT22;4064;48.132;11.366;2023-02-21T01:57:06;3.80;92.00
8043;DHT22;4064;48.132;11.366;2023-02-21T01:59:54;3.70;92.20
8043;DHT22;4064;48.132;11.366;2023-02-21T02:02:56;3.70;92.50
8043;DHT22;4064;48.132;11.366;2023-02-21T02:05:43;3.70;92.70
8043;DHT22;4064;48.132;11.366;2023-02-21T02:08:30;3.60;93.00
8043;DHT22;4064;48.132;11.366;2023-02-21T02:14:52;3.60;93.30
8043;DHT22;4064;48.132;11.366;2023-02-21T02:20:20;3.60;93.50
8043;DHT22;4064;48.132;11.366;2023-02-21T02:34:26;3.60;94.80
8043;DHT22;4064;48.132;11.366;2023-02-21T02:39:32;3.40;95.20
8043;DHT22;4064;48.132;11.366;2023-02-21T02:42:15;3.40;95.40
8043;DHT22;4064;48.132;11.366;2023-02-21T02:44:49;3.50;95.70
8043;DHT22;4064;48.132;11.366;2023-02-21T02:47:27;3.40;95.90
8043;DHT22;4064;48.132;11.366;2023-02-21T02:49:54;3.50;96.20
8043;DHT22;4064;48.132;11.366;2023-02-21T02:52:22;3.40;96.20
8043;DHT22;4064;48.132;11.366;2023-02-21T02:54:59;3.50;96.60
8043;DHT22;4064;48.132;11.366;2023-02-21T02:57:26;3.40;96.60
8043;DHT22;4064;48.132;11.366;2023-02-21T02:59:53;3.40;97.00
8043;DHT22;4064;48.132;11.366;2023-02-21T03:08:02;3.40;97.00
8043;DHT22;4064;48.132;11.366;2023-02-21T03:10:42;3.30;97.30
8043;DHT22;4064;48.132;11.366;2023-02-21T03:13:33;3.30;97.50
8043;DHT22;4064;48.132;11.366;2023-02-21T03:21:51;3.20;98.20
8043;DHT22;4064;48.132;11.366;2023-02-21T03:24:21;3.20;98.30
8043;DHT22;4064;48.132;11.366;2023-02-21T03:26:51;3.20;98.50
8043;DHT22;4064;48.132;11.366;2023-02-21T03:29:18;3.20;98.50
8043;DHT22;4064;48.132;11.366;2023-02-21T03:32:02;3.10;98.80
8043;DHT22;4064;48.132;11.366;2023-02-21T03:34:40;3.20;99.20
8043;DHT22;4064;48.132;11.366;2023-02-21T03:37:08;3.30;99.60
8043;DHT22;4064;48.132;11.366;2023-02-21T03:39:34;3.30;99.70
8043;DHT22;4064;48.132;11.366;2023-02-21T03:42:00;3.30;99.40
8043;DHT22;4064;48.132;11.366;2023-02-21T03:44:26;3.30;99.60
8043;DHT22;4064;48.132;11.366;2023-02-21T03:46:52;3.30;99.80
8043;DHT22;4064;48.132;11.366;2023-02-21T03:49:18;3.40;99.80
8043;DHT22;4064;48.132;11.366;2023-02-21T03:51:44;3.40;99.80
8043;DHT22;4064;48.132;11.366;2023-02-21T03:54:09;3.40;99.90
8043;DHT22;4064;48.132;11.366;2023-02-21T03:56:35;3.30;99.90
8043;DHT22;4064;48.132;11.366;2023-02-21T03:59:01;3.40;99.90
8043;DHT22;4064;48.132;11.366;2023-02-21T04:01:27;3.40;99.90
8043;DHT22;4064;48.132;11.366;2023-02-21T04:03:53;3.40;99.90
8043;DHT22;4064;48.132;11.366;2023-02-21T04:06:19;3.40;99.90
8043;DHT22;4064;48.132;11.366;2023-02-21T04:08:44;3.40;99.90
8043;DHT22;4064;48.132;11.366;2023-02-21T04:11:10;3.40;99.90
8043;DHT22;4064;48.132;11.366;2023-02-21T04:13:36;3.40;99.90
8043;DHT22;4064;48.132;11.366;2023-02-21T04:16:03;3.40;99.90
8043;DHT22;4064;48.132;11.366;2023-02-21T04:18:29;3.40;99.90
8043;DHT22;4064;48.132;11.366;2023-02-21T04:20:54;3.40;99.90
8043;DHT22;4064;48.132;11.366;2023-02-21T04:23:21;3.40;99.90
8043;DHT22;4064;48.132;11.366;2023-02-21T04:25:47;3.40;99.90
8043;DHT22;4064;48.132;11.366;2023-02-21T04:28:13;3.50;99.90
8043;DHT22;4064;48.132;11.366;2023-02-21T04:30:39;3.50;99.90
8043;DHT22;4064;48.132;11.366;2023-02-21T04:33:04;3.40;99.90
8043;DHT22;4064;48.132;11.366;2023-02-21T04:35:30;3.40;99.90
8043;DHT22;4064;48.132;11.366;2023-02-21T04:37:56;3.40;99.90
8043;DHT22;4064;48.132;11.366;2023-02-21T04:40:22;3.30;99.90
8043;DHT22;4064;48.132;11.366;2023-02-21T04:42:47;3.30;99.90
8043;DHT22;4064;48.132;11.366;2023-02-21T04:45:13;3.30;99.90
8043;DHT22;4064;48.132;11.366;2023-02-21T04:47:39;3.30;99.90
8043;DHT22;4064;48.132;11.366;2023-02-21T04:50:05;3.30;99.90
8043;DHT22;4064;48.132;11.366;2023-02-21T04:52:31;3.30;99.90
8043;DHT22;4064;48.132;11.366;2023-02-21T04:54:57;3.30;99.90
8043;DHT22;4064;48.132;11.366;2023-02-21T04:57:23;3.40;99.90
8043;DHT22;4064;48.132;11.366;2023-02-21T04:59:55;3.40;99.90
8043;DHT22;4064;48.132;11.366;2023-02-21T05:02:21;3.40;99.90
8043;DHT22;4064;48.132;11.366;2023-02-21T05:04:47;3.40;99.90
8043;DHT22;4064;48.132;11.366;2023-02-21T05:07:12;3.30;99.90
8043;DHT22;4064;48.132;11.366;2023-02-21T05:09:38;3.30;99.90
8043;DHT22;4064;48.132;11.366;2023-02-21T05:12:04;3.30;99.90
8043;DHT22;4064;48.132;11.366;2023-02-21T05:14:38;3.30;99.90
8043;DHT22;4064;48.132;11.366;2023-02-21T05:17:05;3.30;99.90
8043;DHT22;4064;48.132;11.366;2023-02-21T05:19:31;3.40;99.90
8043;DHT22;4064;48.132;11.366;2023-02-21T05:21:58;3.40;99.90
8043;DHT22;4064;48.132;11.366;2023-02-21T05:24:26;3.40;99.90
8043;DHT22;4064;48.132;11.366;2023-02-21T05:26:52;3.30;99.90
8043;DHT22;4064;48.132;11.366;2023-02-21T05:29:18;3.30;99.90
8043;DHT22;4064;48.132;11.366;2023-02-21T05:31:45;3.30;99.90
8043;DHT22;4064;48.132;11.366;2023-02-21T05:34:11;3.30;99.90
8043;DHT22;4064;48.132;11.366;2023-02-21T05:36:37;3.20;99.90
8043;DHT22;4064;48.132;11.366;2023-02-21T05:39:03;3.20;99.90
8043;DHT22;4064;48.132;11.366;2023-02-21T05:41:29;3.20;99.90
8043;DHT22;4064;48.132;11.366;2023-02-21T05:43:55;3.20;99.90
8043;DHT22;4064;48.132;11.366;2023-02-21T05:46:24;3.20;99.90
8043;DHT22;4064;48.132;11.366;2023-02-21T05:48:50;3.10;99.90
8043;DHT22;4064;48.132;11.366;2023-02-21T05:51:17;3.20;99.90
8043;DHT22;4064;48.132;11.366;2023-02-21T05:53:43;3.20;99.90
8043;DHT22;4064;48.132;11.366;2023-02-21T05:56:09;3.20;99.90
8043;DHT22;4064;48.132;11.366;2023-02-21T05:58:35;3.20;99.90
8043;DHT22;4064;48.132;11.366;2023-02-21T06:01:01;3.20;99.90
8043;DHT22;4064;48.132;11.366;2023-02-21T06:03:27;3.20;99.90
8043;DHT22;4064;48.132;11.366;2023-02-21T06:05:53;3.20;99.90
8043;DHT22;4064;48.132;11.366;2023-02-21T06:08:19;3.20;99.90
8043;DHT22;4064;48.132;11.366;2023-02-21T06:10:44;3.20;99.90
8043;DHT22;4064;48.132;11.366;2023-02-21T06:13:10;3.30;99.90
8043;DHT22;4064;48.132;11.366;2023-02-21T06:15:36;3.30;99.90
8043;DHT22;4064;48.132;11.366;2023-02-21T06:18:01;3.40;99.90
8043;DHT22;4064;48.132;11.366;2023-02-21T06:20:27;3.40;99.90
8043;DHT22;4064;48.132;11.366;2023-02-21T06:22:53;3.40;99.90
8043;DHT22;4064;48.132;11.366;2023-02-21T06:25:19;3.40;99.90
8043;DHT22;4064;48.132;11.366;2023-02-21T06:27:45;3.50;99.90
8043;DHT22;4064;48.132;11.366;2023-02-21T06:30:11;3.50;99.90
8043;DHT22;4064;48.132;11.366;2023-02-21T06:32:37;3.50;99.90
8043;DHT22;4064;48.132;11.366;2023-02-21T06:35:03;3.60;99.90
8043;DHT22;4064;48.132;11.366;2023-02-21T06:37:29;3.60;99.90
8043;DHT22;4064;48.132;11.366;2023-02-21T06:39:55;3.70;99.90
8043;DHT22;4064;48.132;11.366;2023-02-21T06:42:20;3.70;99.90
8043;DHT22;4064;48.132;11.366;2023-02-21T06:44:48;3.80;99.90
8043;DHT22;4064;48.132;11.366;2023-02-21T06:47:15;3.80;99.90
8043;DHT22;4064;48.132;11.366;2023-02-21T06:49:41;3.80;99.90
8043;DHT22;4064;48.132;11.366;2023-02-21T06:52:07;3.90;99.90
8043;DHT22;4064;48.132;11.366;2023-02-21T06:54:34;3.90;99.90
8043;DHT22;4064;48.132;11.366;2023-02-21T06:56:59;4.00;99.90
8043;DHT22;4064;48.132;11.366;2023-02-21T06:59:27;4.00;99.90
8043;DHT22;4064;48.132;11.366;2023-02-21T07:01:53;4.10;99.90
8043;DHT22;4064;48.132;11.366;2023-02-21T07:04:19;4.20;99.90
8043;DHT22;4064;48.132;11.366;2023-02-21T07:06:45;4.40;99.90
8043;DHT22;4064;48.132;11.366;2023-02-21T07:09:11;4.50;99.90
8043;DHT22;4064;48.132;11.366;2023-02-21T07:11:38;4.60;99.90
8043;DHT22;4064;48.132;11.366;2023-02-21T07:14:03;4.70;99.90
8043;DHT22;4064;48.132;11.366;2023-02-21T07:16:29;4.80;99.90
8043;DHT22;4064;48.132;11.366;2023-02-21T07:18:55;4.90;99.90
8043;DHT22;4064;48.132;11.366;2023-02-21T07:21:21;5.10;99.90
8043;DHT22;4064;48.132;11.366;2023-02-21T07:23:48;5.20;99.90
8043;DHT22;4064;48.132;11.366;2023-02-21T07:26:14;5.30;99.90
8043;DHT22;4064;48.132;11.366;2023-02-21T07:28:40;5.50;99.90
8043;DHT22;4064;48.132;11.366;2023-02-21T07:31:06;6.50;99.90
8043;DHT22;4064;48.132;11.366;2023-02-21T07:33:32;8.70;99.40
8043;DHT22;4064;48.132;11.366;2023-02-21T07:35:58;10.70;94.20
8043;DHT22;4064;48.132;11.366;2023-02-21T07:38:27;12.20;91.40
8043;DHT22;4064;48.132;11.366;2023-02-21T07:41:00;13.00;80.90
8043;DHT22;4064;48.132;11.366;2023-02-21T07:43:28;12.40;77.50
8043;DHT22;4064;48.132;11.366;2023-02-21T07:45:54;12.10;78.30
8043;DHT22;4064;48.132;11.366;2023-02-21T07:48:20;11.70;76.60
8043;DHT22;4064;48.132;11.366;2023-02-21T07:50:46;11.30;75.80
8043;DHT22;4064;48.132;11.366;2023-02-21T07:53:13;10.90;76.80
8043;DHT22;4064;48.132;11.366;2023-02-21T07:55:39;10.70;77.30
8043;DHT22;4064;48.132;11.366;2023-02-21T07:58:06;10.60;77.30
8043;DHT22;4064;48.132;11.366;2023-02-21T08:00:32;10.50;76.20
8043;DHT22;4064;48.132;11.366;2023-02-21T08:02:58;10.50;76.90
8043;DHT22;4064;48.132;11.366;2023-02-21T08:05:24;10.60;77.80
8043;DHT22;4064;48.132;11.366;2023-02-21T08:07:50;10.60;77.00
8043;DHT22;4064;48.132;11.366;2023-02-21T08:10:25;10.90;76.00
8043;DHT22;4064;48.132;11.366;2023-02-21T08:12:51;11.50;76.00
8043;DHT22;4064;48.132;11.366;2023-02-21T08:15:17;12.60;74.90
8043;DHT22;4064;48.132;11.366;2023-02-21T08:17:43;13.80;72.50
8043;DHT22;4064;48.132;11.366;2023-02-21T08:20:12;15.40;67.10
8043;DHT22;4064;48.132;11.366;2023-02-21T08:22:37;16.50;63.80
8043;DHT22;4064;48.132;11.366;2023-02-21T08:25:03;18.00;59.30
8043;DHT22;4064;48.132;11.366;2023-02-21T08:27:29;19.20;56.80
8043;DHT22;4064;48.132;11.366;2023-02-21T08:29:54;20.10;53.30
8043;DHT22;4064;48.132;11.366;2023-02-21T08:32:20;19.90;50.10
8043;DHT22;4064;48.132;11.366;2023-02-21T08:34:47;19.20;48.50
8043;DHT22;4064;48.132;11.366;2023-02-21T08:37:13;19.40;50.50
8043;DHT22;4064;48.132;11.366;2023-02-21T08:39:59;20.60;49.10
8043;DHT22;4064;48.132;11.366;2023-02-21T08:42:25;21.00;46.30
8043;DHT22;4064;48.132;11.366;2023-02-21T08:44:51;20.20;45.20
8043;DHT22;4064;48.132;11.366;2023-02-21T08:47:17;20.10;45.40
8043;DHT22;4064;48.132;11.366;2023-02-21T08:49:46;20.10;44.40
8043;DHT22;4064;48.132;11.366;2023-02-21T08:52:13;19.50;44.70
8043;DHT22;4064;48.132;11.366;2023-02-21T08:54:41;18.70;46.00
8043;DHT22;4064;48.132;11.366;2023-02-21T08:57:08;18.00;46.50
8043;DHT22;4064;48.132;11.366;2023-02-21T08:59:33;17.40;46.50
8043;DHT22;4064;48.132;11.366;2023-02-21T09:02:02;17.10;47.30
8043;DHT22;4064;48.132;11.366;2023-02-21T09:04:27;17.50;46.80
8043;DHT22;4064;48.132;11.366;2023-02-21T09:06:54;18.20;46.50
8043;DHT22;4064;48.132;11.366;2023-02-21T09:09:20;19.00;46.00
8043;DHT22;4064;48.132;11.366;2023-02-21T09:11:47;19.70;45.00
8043;DHT22;4064;48.132;11.366;2023-02-21T09:14:14;20.30;43.40
8043;DHT22;4064;48.132;11.366;2023-02-21T09:16:41;21.70;43.50
8043;DHT22;4064;48.132;11.366;2023-02-21T09:19:08;23.00;42.80
8043;DHT22;4064;48.132;11.366;2023-02-21T09:21:35;23.40;40.00
8043;DHT22;4064;48.132;11.366;2023-02-21T09:24:04;23.00;39.70
8043;DHT22;4064;48.132;11.366;2023-02-21T09:26:30;22.30;38.80
8043;DHT22;4064;48.132;11.366;2023-02-21T09:28:58;21.70;40.60
8043;DHT22;4064;48.132;11.366;2023-02-21T09:31:24;21.30;41.20
8043;DHT22;4064;48.132;11.366;2023-02-21T09:33:50;21.20;39.80
8043;DHT22;4064;48.132;11.366;2023-02-21T09:36:16;20.80;40.70
8043;DHT22;4064;48.132;11.366;2023-02-21T09:38:43;21.00;40.80
8043;DHT22;4064;48.132;11.366;2023-02-21T09:41:11;21.40;40.50
8043;DHT22;4064;48.132;11.366;2023-02-21T09:43:46;21.40;40.20
8043;DHT22;4064;48.132;11.366;2023-02-21T09:46:36;21.20;40.20
8043;DHT22;4064;48.132;11.366;2023-02-21T09:49:10;20.70;40.40
8043;DHT22;4064;48.132;11.366;2023-02-21T09:51:39;20.30;40.90
8043;DHT22;4064;48.132;11.366;2023-02-21T09:54:15;19.80;40.60
8043;DHT22;4064;48.132;11.366;2023-02-21T09:56:43;19.80;41.10
8043;DHT22;4064;48.132;11.366;2023-02-21T09:59:11;20.20;41.10
8043;DHT22;4064;48.132;11.366;2023-02-21T10:07:53;19.20;41.50
8043;DHT22;4064;48.132;11.366;2023-02-21T10:10:38;19.20;42.20
8043;DHT22;4064;48.132;11.366;2023-02-21T10:21:39;18.70;44.20
8043;DHT22;4064;48.132;11.366;2023-02-21T10:24:12;18.90;43.10
8043;DHT22;4064;48.132;11.366;2023-02-21T10:26:39;19.00;42.70
8043;DHT22;4064;48.132;11.366;2023-02-21T10:32:00;19.50;42.40
8043;DHT22;4064;48.132;11.366;2023-02-21T10:34:29;19.80;42.30
8043;DHT22;4064;48.132;11.366;2023-02-21T10:36:59;20.50;41.90
8043;DHT22;4064;48.132;11.366;2023-02-21T10:39:49;20.90;40.90
8043;DHT22;4064;48.132;11.366;2023-02-21T10:42:34;21.20;40.80
8043;DHT22;4064;48.132;11.366;2023-02-21T10:45:01;21.40;40.30
8043;DHT22;4064;48.132;11.366;2023-02-21T10:50:11;21.30;40.00
8043;DHT22;4064;48.132;11.366;2023-02-21T10:52:46;21.50;39.80
8043;DHT22;4064;48.132;11.366;2023-02-21T10:55:19;21.80;39.20
8043;DHT22;4064;48.132;11.366;2023-02-21T10:57:50;21.70;39.70
8043;DHT22;4064;48.132;11.366;2023-02-21T11:00:31;21.50;39.10
8043;DHT22;4064;48.132;11.366;2023-02-21T11:03:23;21.30;39.10
8043;DHT22;4064;48.132;11.366;2023-02-21T11:05:56;21.00;39.20
8043;DHT22;4064;48.132;11.366;2023-02-21T11:11:03;20.60;40.20
8043;DHT22;4064;48.132;11.366;2023-02-21T11:13:29;20.40;40.00
8043;DHT22;4064;48.132;11.366;2023-02-21T11:16:15;20.40;40.20
8043;DHT22;4064;48.132;11.366;2023-02-21T11:18:41;20.40;40.70
8043;DHT22;4064;48.132;11.366;2023-02-21T11:21:14;20.30;40.80
8043;DHT22;4064;48.132;11.366;2023-02-21T11:23:47;20.00;40.70
8043;DHT22;4064;48.132;11.366;2023-02-21T11:26:14;19.90;41.00
8043;DHT22;4064;48.132;11.366;2023-02-21T11:28:42;20.00;41.40
8043;DHT22;4064;48.132;11.366;2023-02-21T11:31:15;20.00;41.10
8043;DHT22;4064;48.132;11.366;2023-02-21T11:33:57;20.00;41.90
8043;DHT22;4064;48.132;11.366;2023-02-21T11:39:16;20.00;40.80
8043;DHT22;4064;48.132;11.366;2023-02-21T11:42:28;19.90;41.50
8043;DHT22;4064;48.132;11.366;2023-02-21T11:45:20;19.80;40.90
8043;DHT22;4064;48.132;11.366;2023-02-21T11:48:12;20.00;41.80
8043;DHT22;4064;48.132;11.366;2023-02-21T11:50:45;19.90;41.10
8043;DHT22;4064;48.132;11.366;2023-02-21T11:53:29;20.00;41.90
8043;DHT22;4064;48.132;11.366;2023-02-21T11:56:25;20.10;41.30
8043;DHT22;4064;48.132;11.366;2023-02-21T12:07:20;19.80;42.10
8043;DHT22;4064;48.132;11.366;2023-02-21T12:10:12;19.70;42.40
8043;DHT22;4064;48.132;11.366;2023-02-21T12:13:23;19.70;42.10
8043;DHT22;4064;48.132;11.366;2023-02-21T12:22:07;20.10;42.70
8043;DHT22;4064;48.132;11.366;2023-02-21T12:27:42;20.10;41.60
8043;DHT22;4064;48.132;11.366;2023-02-21T12:33:15;20.30;42.30
8043;DHT22;4064;48.132;11.366;2023-02-21T12:44:55;20.50;42.10
8043;DHT22;4064;48.132;11.366;2023-02-21T12:47:34;20.60;41.00
8043;DHT22;4064;48.132;11.366;2023-02-21T12:50:05;20.60;41.90
8043;DHT22;4064;48.132;11.366;2023-02-21T12:52:56;20.80;41.70
8043;DHT22;4064;48.132;11.366;2023-02-21T12:55:38;20.90;41.30
8043;DHT22;4064;48.132;11.366;2023-02-21T13:14:23;21.00;40.80
8043;DHT22;4064;48.132;11.366;2023-02-21T13:16:52;21.00;41.20
8043;DHT22;4064;48.132;11.366;2023-02-21T13:19:18;21.30;41.60
8043;DHT22;4064;48.132;11.366;2023-02-21T13:22:08;21.40;40.90
8043;DHT22;4064;48.132;11.366;2023-02-21T13:25:00;21.60;40.70
8043;DHT22;4064;48.132;11.366;2023-02-21T13:27:45;21.80;40.40
8043;DHT22;4064;48.132;11.366;2023-02-21T13:30:59;21.90;40.30
8043;DHT22;4064;48.132;11.366;2023-02-21T13:33:40;21.90;40.20
8043;DHT22;4064;48.132;11.366;2023-02-21T13:39:02;21.70;40.60
8043;DHT22;4064;48.132;11.366;2023-02-21T13:41:33;21.30;40.30
8043;DHT22;4064;48.132;11.366;2023-02-21T13:44:05;20.90;40.60
8043;DHT22;4064;48.132;11.366;2023-02-21T13:58:22;19.40;41.70
8043;DHT22;4064;48.132;11.366;2023-02-21T14:11:10;18.20;43.40
8043;DHT22;4064;48.132;11.366;2023-02-21T14:21:06;17.70;44.40
8043;DHT22;4064;48.132;11.366;2023-02-21T14:23:44;17.70;44.50
8043;DHT22;4064;48.132;11.366;2023-02-21T14:26:38;17.70;44.70
8043;DHT22;4064;48.132;11.366;2023-02-21T15:08:20;19.40;43.60
8043;DHT22;4064;48.132;11.366;2023-02-21T15:10:49;19.10;43.80
8043;DHT22;4064;48.132;11.366;2023-02-21T15:13:30;18.70;43.60
8043;DHT22;4064;48.132;11.366;2023-02-21T15:16:05;18.30;43.80
8043;DHT22;4064;48.132;11.366;2023-02-21T15:18:38;18.00;44.60
8043;DHT22;4064;48.132;11.366;2023-02-21T15:21:19;17.60;44.70
8043;DHT22;4064;48.132;11.366;2023-02-21T15:23:47;17.30;45.00
8043;DHT22;4064;48.132;11.366;2023-02-21T15:26:25;17.10;45.80
8043;DHT22;4064;48.132;11.366;2023-02-21T15:29:16;16.80;46.40
8043;DHT22;4064;48.132;11.366;2023-02-21T15:31:51;16.50;46.40
8043;DHT22;4064;48.132;11.366;2023-02-21T15:34:22;16.20;47.10
8043;DHT22;4064;48.132;11.366;2023-02-21T15:37:03;16.00;47.20
8043;DHT22;4064;48.132;11.366;2023-02-21T15:39:39;15.80;48.70
8043;DHT22;4064;48.132;11.366;2023-02-21T15:42:08;15.50;48.80
8043;DHT22;4064;48.132;11.366;2023-02-21T15:44:39;15.30;49.20
8043;DHT22;4064;48.132;11.366;2023-02-21T15:47:14;15.20;49.50
8043;DHT22;4064;48.132;11.366;2023-02-21T15:50:06;15.00;49.80
8043;DHT22;4064;48.132;11.366;2023-02-21T15:52:43;14.80;49.80
8043;DHT22;4064;48.132;11.366;2023-02-21T15:57:58;14.50;50.20
8043;DHT22;4064;48.132;11.366;2023-02-21T16:02:50;14.20;51.20
8043;DHT22;4064;48.132;11.366;2023-02-21T16:05:28;14.10;51.40
8043;DHT22;4064;48.132;11.366;2023-02-21T16:08:00;13.90;51.40
8043;DHT22;4064;48.132;11.366;2023-02-21T16:10:26;13.80;52.10
8043;DHT22;4064;48.132;11.366;2023-02-21T16:12:59;13.60;52.40
8043;DHT22;4064;48.132;11.366;2023-02-21T16:15:31;13.50;53.00
8043;DHT22;4064;48.132;11.366;2023-02-21T16:18:01;13.40;53.30
8043;DHT22;4064;48.132;11.366;2023-02-21T16:20:41;13.30;54.30
8043;DHT22;4064;48.132;11.366;2023-02-21T16:25:55;13.00;55.50
8043;DHT22;4064;48.132;11.366;2023-02-21T16:28:21;12.90;55.60
8043;DHT22;4064;48.132;11.366;2023-02-21T16:30:47;12.70;56.60
8043;DHT22;4064;48.132;11.366;2023-02-21T16:33:13;12.50;55.90
8043;DHT22;4064;48.132;11.366;2023-02-21T16:35:39;12.40;56.50
8043;DHT22;4064;48.132;11.366;2023-02-21T16:38:05;12.30;57.40
8043;DHT22;4064;48.132;11.366;2023-02-21T16:40:34;12.10;58.20
8043;DHT22;4064;48.132;11.366;2023-02-21T16:43:02;12.00;58.90
8043;DHT22;4064;48.132;11.366;2023-02-21T16:45:29;11.80;58.80
8043;DHT22;4064;48.132;11.366;2023-02-21T16:47:57;11.70;59.40
8043;DHT22;4064;48.132;11.366;2023-02-21T16:50:33;11.50;59.60
8043;DHT22;4064;48.132;11.366;2023-02-21T16:53:00;11.40;60.10
8043;DHT22;4064;48.132;11.366;2023-02-21T16:55:26;11.20;60.10
8043;DHT22;4064;48.132;11.366;2023-02-21T16:57:58;11.10;61.20
8043;DHT22;4064;48.132;11.366;2023-02-21T17:00:24;11.00;61.40
8043;DHT22;4064;48.132;11.366;2023-02-21T17:02:51;10.80;61.60
8043;DHT22;4064;48.132;11.366;2023-02-21T17:05:19;10.70;61.90
8043;DHT22;4064;48.132;11.366;2023-02-21T17:07:49;10.50;62.50
8043;DHT22;4064;48.132;11.366;2023-02-21T17:10:17;10.40;62.90
8043;DHT22;4064;48.132;11.366;2023-02-21T17:12:43;10.30;63.20
8043;DHT22;4064;48.132;11.366;2023-02-21T17:15:09;10.20;63.90
8043;DHT22;4064;48.132;11.366;2023-02-21T17:17:36;10.10;63.80
8043;DHT22;4064;48.132;11.366;2023-02-21T17:20:02;10.00;64.20
8043;DHT22;4064;48.132;11.366;2023-02-21T17:22:27;9.90;65.70
8043;DHT22;4064;48.132;11.366;2023-02-21T17:24:53;9.80;66.20
8043;DHT22;4064;48.132;11.366;2023-02-21T17:27:19;9.70;66.40
8043;DHT22;4064;48.132;11.366;2023-02-21T17:29:46;9.70;67.40
8043;DHT22;4064;48.132;11.366;2023-02-21T17:32:12;9.60;67.40
8043;DHT22;4064;48.132;11.366;2023-02-21T17:34:38;9.50;67.80
8043;DHT22;4064;48.132;11.366;2023-02-21T17:37:04;9.50;68.20
8043;DHT22;4064;48.132;11.366;2023-02-21T17:39:30;9.40;68.60
8043;DHT22;4064;48.132;11.366;2023-02-21T17:41:56;9.30;68.90
8043;DHT22;4064;48.132;11.366;2023-02-21T17:44:22;9.30;69.40
8043;DHT22;4064;48.132;11.366;2023-02-21T17:46:51;9.20;69.80
8043;DHT22;4064;48.132;11.366;2023-02-21T17:49:19;9.10;70.20
8043;DHT22;4064;48.132;11.366;2023-02-21T17:51:46;9.10;71.20
8043;DHT22;4064;48.132;11.366;2023-02-21T17:54:13;9.00;71.10
8043;DHT22;4064;48.132;11.366;2023-02-21T17:56:39;8.90;71.40
8043;DHT22;4064;48.132;11.366;2023-02-21T17:59:05;8.90;71.40
8043;DHT22;4064;48.132;11.366;2023-02-21T18:01:31;8.80;72.50
8043;DHT22;4064;48.132;11.366;2023-02-21T18:03:57;8.80;72.80
8043;DHT22;4064;48.132;11.366;2023-02-21T18:06:26;8.70;73.50
8043;DHT22;4064;48.132;11.366;2023-02-21T18:08:53;8.60;73.80
8043;DHT22;4064;48.132;11.366;2023-02-21T18:11:20;8.60;74.20
8043;DHT22;4064;48.132;11.366;2023-02-21T18:13:47;8.50;74.70
8043;DHT22;4064;48.132;11.366;2023-02-21T18:16:13;8.50;75.30
8043;DHT22;4064;48.132;11.366;2023-02-21T18:18:39;8.40;75.50
8043;DHT22;4064;48.132;11.366;2023-02-21T18:21:05;8.30;75.80
8043;DHT22;4064;48.132;11.366;2023-02-21T18:23:31;8.30;76.10
8043;DHT22;4064;48.132;11.366;2023-02-21T18:25:58;8.20;77.20
8043;DHT22;4064;48.132;11.366;2023-02-21T18:28:24;8.40;77.00
8043;DHT22;4064;48.132;11.366;2023-02-21T18:30:50;8.40;77.60
8043;DHT22;4064;48.132;11.366;2023-02-21T18:33:19;8.40;77.80
8043;DHT22;4064;48.132;11.366;2023-02-21T18:35:45;8.30;78.30
8043;DHT22;4064;48.132;11.366;2023-02-21T18:38:11;8.30;78.70
8043;DHT22;4064;48.132;11.366;2023-02-21T18:40:37;8.20;79.40
8043;DHT22;4064;48.132;11.366;2023-02-21T18:43:20;8.20;79.80
8043;DHT22;4064;48.132;11.366;2023-02-21T18:45:48;8.10;80.30
8043;DHT22;4064;48.132;11.366;2023-02-21T18:48:14;8.00;80.90
8043;DHT22;4064;48.132;11.366;2023-02-21T18:50:41;8.00;81.60
8043;DHT22;4064;48.132;11.366;2023-02-21T18:53:07;8.00;81.80
8043;DHT22;4064;48.132;11.366;2023-02-21T18:55:33;7.90;81.80
8043;DHT22;4064;48.132;11.366;2023-02-21T18:57:59;7.80;82.30
8043;DHT22;4064;48.132;11.366;2023-02-21T19:00:25;7.80;83.20
8043;DHT22;4064;48.132;11.366;2023-02-21T19:02:51;7.80;83.70
8043;DHT22;4064;48.132;11.366;2023-02-21T19:05:19;7.80;84.30
8043;DHT22;4064;48.132;11.366;2023-02-21T19:07:45;7.70;84.70
8043;DHT22;4064;48.132;11.366;2023-02-21T19:10:13;7.60;84.70
8043;DHT22;4064;48.132;11.366;2023-02-21T19:12:39;7.50;85.20
8043;DHT22;4064;48.132;11.366;2023-02-21T19:15:06;7.50;86.50
8043;DHT22;4064;48.132;11.366;2023-02-21T19:17:32;7.40;87.40
8043;DHT22;4064;48.132;11.366;2023-02-21T19:19:58;7.40;87.50
8043;DHT22;4064;48.132;11.366;2023-02-21T19:22:23;7.40;88.10
8043;DHT22;4064;48.132;11.366;2023-02-21T19:24:49;7.30;88.40
8043;DHT22;4064;48.132;11.366;2023-02-21T19:27:15;7.20;88.80